Главная страница
METAR-TAF:

METAR-TAF

Аэропорты :

Йоэнсуу, Финляндия

широта: 62-40N, долгота: 029-38E, высота над уровнем моря: 119 м

Текущие метеонаблюдения

Эта сводка был подготовлена 34 минут назад, в 14:50 UTC
Ветер 3 Узел от северно-северо-западный
Температура 0°C
Влажность 80%
Давление 1018 hPa
Видимость 10 км и более
Отдельные облака на высоте 2400 фута

METAR: EFJO 221450Z AUTO 33003KT 9999 SCT024 00/M03 Q1018

Время: 18:24 (15:24 UTC)

Прогноз

Эта сводка был подготовлена 4 часа и 1 минут назад, в 11:23 UTC
Прогноз действительный с 22-го 12 UTC до 22-го 16 UTC
Ветер 8 Узел от северно-северо-западный
Видимость 10 км и более
небольшая облачность на высоте 2000 фута
Рассеянная облачность на высоте 4000 фута
Вероятность 30%
С 22-го 12 UTC до 22-го 15 UTC
Видимость: 3000 м
на высоте 800 фута
небольшие ливневые снегопады

TAF: EFJO 221123Z 2212/2216 34008KT 9999 FEW020 BKN040 PROB30 2212/2215 3000 -SHSN VV008

Метеонаблюдения и прогнозы для более 4000 аэропортов (сводки METAR и TAF).

Имеющиеся станции представлены на карте желтыми и красными точками.

Чтобы увидеть название станции, наведите на нее мышь.

Затем щелкните, чтобы увидеть метеонаблюдения и метеопрогнозы.

Управление картой: чтобы увеличить масштаб, щелкните зеленые кнопки с черным крестиком; чтобы уменьшить масштаб, щелкните зеленую кнопку с тире; для просмотра соседних карт щелкайте зеленые стрелки.


METAR-TAF: